sensor_id;sensor_type;location;lat;lon;timestamp;temperature;humidity
24632;DHT22;59977;48.782;9.190;2024-03-07T00:01:17;9.00;99.90
24632;DHT22;59977;48.782;9.190;2024-03-07T00:03:43;8.40;99.90
24632;DHT22;59977;48.782;9.190;2024-03-07T00:06:10;8.40;99.90
24632;DHT22;59977;48.782;9.190;2024-03-07T00:08:35;7.50;99.90
24632;DHT22;59977;48.782;9.190;2024-03-07T00:11:01;8.90;99.90
24632;DHT22;59977;48.782;9.190;2024-03-07T00:13:27;8.30;99.90
24632;DHT22;59977;48.782;9.190;2024-03-07T00:15:56;8.30;99.90
24632;DHT22;59977;48.782;9.190;2024-03-07T00:18:23;8.30;99.90
24632;DHT22;59977;48.782;9.190;2024-03-07T00:20:49;7.60;99.90
24632;DHT22;59977;48.782;9.190;2024-03-07T00:23:15;8.30;99.90
24632;DHT22;59977;48.782;9.190;2024-03-07T00:25:42;8.50;99.90
24632;DHT22;59977;48.782;9.190;2024-03-07T00:28:10;8.20;99.90
24632;DHT22;59977;48.782;9.190;2024-03-07T00:30:36;8.30;99.90
24632;DHT22;59977;48.782;9.190;2024-03-07T00:33:04;8.30;99.90
24632;DHT22;59977;48.782;9.190;2024-03-07T00:35:32;8.30;99.90
24632;DHT22;59977;48.782;9.190;2024-03-07T00:38:05;9.20;99.90
24632;DHT22;59977;48.782;9.190;2024-03-07T00:40:32;8.30;99.90
24632;DHT22;59977;48.782;9.190;2024-03-07T00:42:58;8.90;99.90
24632;DHT22;59977;48.782;9.190;2024-03-07T00:45:25;8.30;99.90
24632;DHT22;59977;48.782;9.190;2024-03-07T00:47:51;8.50;99.90
24632;DHT22;59977;48.782;9.190;2024-03-07T00:50:21;8.40;99.90
24632;DHT22;59977;48.782;9.190;2024-03-07T00:52:47;8.40;99.90
24632;DHT22;59977;48.782;9.190;2024-03-07T00:55:13;8.20;99.90
24632;DHT22;59977;48.782;9.190;2024-03-07T00:57:44;8.20;99.90
24632;DHT22;59977;48.782;9.190;2024-03-07T01:00:14;8.30;99.90
24632;DHT22;59977;48.782;9.190;2024-03-07T01:02:42;8.30;99.90
24632;DHT22;59977;48.782;9.190;2024-03-07T01:05:12;8.90;99.90
24632;DHT22;59977;48.782;9.190;2024-03-07T01:07:43;8.30;99.90
24632;DHT22;59977;48.782;9.190;2024-03-07T01:10:10;7.70;99.90
24632;DHT22;59977;48.782;9.190;2024-03-07T01:12:36;8.10;99.90
24632;DHT22;59977;48.782;9.190;2024-03-07T01:15:04;8.70;99.90
24632;DHT22;59977;48.782;9.190;2024-03-07T01:17:32;8.00;99.90
24632;DHT22;59977;48.782;9.190;2024-03-07T01:20:00;8.40;99.90
24632;DHT22;59977;48.782;9.190;2024-03-07T01:22:25;7.80;99.90
24632;DHT22;59977;48.782;9.190;2024-03-07T01:24:51;8.80;99.90
24632;DHT22;59977;48.782;9.190;2024-03-07T01:27:17;8.10;99.90
24632;DHT22;59977;48.782;9.190;2024-03-07T01:29:44;8.20;99.90
24632;DHT22;59977;48.782;9.190;2024-03-07T01:32:10;7.70;99.90
24632;DHT22;59977;48.782;9.190;2024-03-07T01:34:36;8.40;99.90
24632;DHT22;59977;48.782;9.190;2024-03-07T01:37:02;8.30;99.90
24632;DHT22;59977;48.782;9.190;2024-03-07T01:39:27;8.40;99.90
24632;DHT22;59977;48.782;9.190;2024-03-07T01:41:53;8.80;99.90
24632;DHT22;59977;48.782;9.190;2024-03-07T01:44:19;8.90;99.90
24632;DHT22;59977;48.782;9.190;2024-03-07T01:46:45;7.80;99.90
24632;DHT22;59977;48.782;9.190;2024-03-07T01:49:11;8.20;99.90
24632;DHT22;59977;48.782;9.190;2024-03-07T01:51:37;8.20;99.90
24632;DHT22;59977;48.782;9.190;2024-03-07T01:54:08;8.50;99.90
24632;DHT22;59977;48.782;9.190;2024-03-07T01:56:35;7.90;99.90
24632;DHT22;59977;48.782;9.190;2024-03-07T01:59:02;7.80;99.90
24632;DHT22;59977;48.782;9.190;2024-03-07T02:01:39;7.60;99.90
24632;DHT22;59977;48.782;9.190;2024-03-07T02:04:14;6.80;99.90
24632;DHT22;59977;48.782;9.190;2024-03-07T02:06:50;7.50;99.90
24632;DHT22;59977;48.782;9.190;2024-03-07T02:09:21;6.70;99.90
24632;DHT22;59977;48.782;9.190;2024-03-07T02:11:51;7.80;99.90
24632;DHT22;59977;48.782;9.190;2024-03-07T02:14:23;7.30;99.90
24632;DHT22;59977;48.782;9.190;2024-03-07T02:16:48;6.50;99.90
24632;DHT22;59977;48.782;9.190;2024-03-07T02:19:15;6.60;99.90
24632;DHT22;59977;48.782;9.190;2024-03-07T02:21:41;7.00;99.90
24632;DHT22;59977;48.782;9.190;2024-03-07T02:24:07;7.50;99.90
24632;DHT22;59977;48.782;9.190;2024-03-07T02:26:34;7.50;99.90
24632;DHT22;59977;48.782;9.190;2024-03-07T02:28:59;6.70;99.90
24632;DHT22;59977;48.782;9.190;2024-03-07T02:31:25;7.70;99.90
24632;DHT22;59977;48.782;9.190;2024-03-07T02:34:01;6.90;99.90
24632;DHT22;59977;48.782;9.190;2024-03-07T02:36:28;6.70;99.90
24632;DHT22;59977;48.782;9.190;2024-03-07T02:38:54;7.30;99.90
24632;DHT22;59977;48.782;9.190;2024-03-07T02:41:20;7.50;99.90
24632;DHT22;59977;48.782;9.190;2024-03-07T02:43:46;6.70;99.90
24632;DHT22;59977;48.782;9.190;2024-03-07T02:46:12;5.50;99.90
24632;DHT22;59977;48.782;9.190;2024-03-07T02:48:38;6.70;99.90
24632;DHT22;59977;48.782;9.190;2024-03-07T02:51:05;7.80;99.90
24632;DHT22;59977;48.782;9.190;2024-03-07T02:53:34;7.90;99.90
24632;DHT22;59977;48.782;9.190;2024-03-07T02:55:59;6.70;99.90
24632;DHT22;59977;48.782;9.190;2024-03-07T02:58:25;6.70;99.90
24632;DHT22;59977;48.782;9.190;2024-03-07T03:00:58;6.70;99.90
24632;DHT22;59977;48.782;9.190;2024-03-07T03:03:28;8.10;99.90
24632;DHT22;59977;48.782;9.190;2024-03-07T03:05:57;6.70;99.90
24632;DHT22;59977;48.782;9.190;2024-03-07T03:08:23;6.70;99.90
24632;DHT22;59977;48.782;9.190;2024-03-07T03:10:49;7.70;99.90
24632;DHT22;59977;48.782;9.190;2024-03-07T03:13:17;5.80;99.90
24632;DHT22;59977;48.782;9.190;2024-03-07T03:15:42;7.00;99.90
24632;DHT22;59977;48.782;9.190;2024-03-07T03:18:08;7.50;99.90
24632;DHT22;59977;48.782;9.190;2024-03-07T03:20:38;7.80;99.90
24632;DHT22;59977;48.782;9.190;2024-03-07T03:23:08;6.50;99.90
24632;DHT22;59977;48.782;9.190;2024-03-07T03:25:39;6.60;99.90
24632;DHT22;59977;48.782;9.190;2024-03-07T03:28:05;6.50;99.90
24632;DHT22;59977;48.782;9.190;2024-03-07T03:30:32;7.60;99.90
24632;DHT22;59977;48.782;9.190;2024-03-07T03:33:01;7.50;99.90
24632;DHT22;59977;48.782;9.190;2024-03-07T03:35:27;6.40;99.90
24632;DHT22;59977;48.782;9.190;2024-03-07T03:37:56;6.30;99.90
24632;DHT22;59977;48.782;9.190;2024-03-07T03:40:22;6.30;99.90
24632;DHT22;59977;48.782;9.190;2024-03-07T03:46:14;7.30;99.90
24632;DHT22;59977;48.782;9.190;2024-03-07T03:48:40;6.30;99.90
24632;DHT22;59977;48.782;9.190;2024-03-07T03:51:10;6.20;99.90
24632;DHT22;59977;48.782;9.190;2024-03-07T03:53:38;7.60;99.90
24632;DHT22;59977;48.782;9.190;2024-03-07T03:56:04;6.20;99.90
24632;DHT22;59977;48.782;9.190;2024-03-07T03:58:31;6.20;99.90
24632;DHT22;59977;48.782;9.190;2024-03-07T04:00:57;6.40;99.90
24632;DHT22;59977;48.782;9.190;2024-03-07T04:03:24;6.30;99.90
24632;DHT22;59977;48.782;9.190;2024-03-07T04:05:50;6.90;99.90
24632;DHT22;59977;48.782;9.190;2024-03-07T04:08:16;6.30;99.90
24632;DHT22;59977;48.782;9.190;2024-03-07T04:10:41;7.30;99.90
24632;DHT22;59977;48.782;9.190;2024-03-07T04:13:07;6.40;99.90
24632;DHT22;59977;48.782;9.190;2024-03-07T04:15:34;6.30;99.90
24632;DHT22;59977;48.782;9.190;2024-03-07T04:18:01;6.30;99.90
24632;DHT22;59977;48.782;9.190;2024-03-07T04:20:27;6.30;99.90
24632;DHT22;59977;48.782;9.190;2024-03-07T04:22:53;6.80;99.90
24632;DHT22;59977;48.782;9.190;2024-03-07T04:25:21;6.90;99.90
24632;DHT22;59977;48.782;9.190;2024-03-07T04:27:46;7.00;99.90
24632;DHT22;59977;48.782;9.190;2024-03-07T04:30:15;6.20;99.90
24632;DHT22;59977;48.782;9.190;2024-03-07T04:32:42;7.00;99.90
24632;DHT22;59977;48.782;9.190;2024-03-07T04:35:08;6.30;99.90
24632;DHT22;59977;48.782;9.190;2024-03-07T04:37:38;6.20;99.90
24632;DHT22;59977;48.782;9.190;2024-03-07T04:40:10;6.20;99.90
24632;DHT22;59977;48.782;9.190;2024-03-07T04:42:46;6.10;99.90
24632;DHT22;59977;48.782;9.190;2024-03-07T04:45:12;6.00;99.90
24632;DHT22;59977;48.782;9.190;2024-03-07T04:47:41;6.60;99.90
24632;DHT22;59977;48.782;9.190;2024-03-07T04:50:08;5.70;99.90
24632;DHT22;59977;48.782;9.190;2024-03-07T04:52:36;5.60;99.90
24632;DHT22;59977;48.782;9.190;2024-03-07T04:55:04;6.60;99.90
24632;DHT22;59977;48.782;9.190;2024-03-07T04:57:30;5.30;99.90
24632;DHT22;59977;48.782;9.190;2024-03-07T05:00:02;5.30;99.90
24632;DHT22;59977;48.782;9.190;2024-03-07T05:02:28;5.40;99.90
24632;DHT22;59977;48.782;9.190;2024-03-07T05:04:54;6.30;99.90
24632;DHT22;59977;48.782;9.190;2024-03-07T05:07:20;6.00;99.90
24632;DHT22;59977;48.782;9.190;2024-03-07T05:09:46;5.80;99.90
24632;DHT22;59977;48.782;9.190;2024-03-07T05:12:14;5.10;99.90
24632;DHT22;59977;48.782;9.190;2024-03-07T05:14:40;4.30;99.90
24632;DHT22;59977;48.782;9.190;2024-03-07T05:17:06;5.10;99.90
24632;DHT22;59977;48.782;9.190;2024-03-07T05:19:34;5.10;99.90
24632;DHT22;59977;48.782;9.190;2024-03-07T05:22:00;5.70;99.90
24632;DHT22;59977;48.782;9.190;2024-03-07T05:24:26;5.50;99.90
24632;DHT22;59977;48.782;9.190;2024-03-07T05:26:52;6.20;99.90
24632;DHT22;59977;48.782;9.190;2024-03-07T05:29:19;5.20;99.90
24632;DHT22;59977;48.782;9.190;2024-03-07T05:31:47;5.70;99.90
24632;DHT22;59977;48.782;9.190;2024-03-07T05:34:26;6.10;99.90
24632;DHT22;59977;48.782;9.190;2024-03-07T05:36:53;5.50;99.90
24632;DHT22;59977;48.782;9.190;2024-03-07T05:39:19;6.10;99.90
24632;DHT22;59977;48.782;9.190;2024-03-07T05:41:45;5.10;99.90
24632;DHT22;59977;48.782;9.190;2024-03-07T05:44:12;5.50;99.90
24632;DHT22;59977;48.782;9.190;2024-03-07T05:46:44;4.90;99.90
24632;DHT22;59977;48.782;9.190;2024-03-07T05:49:16;5.40;99.90
24632;DHT22;59977;48.782;9.190;2024-03-07T05:51:48;6.00;99.90
24632;DHT22;59977;48.782;9.190;2024-03-07T05:54:14;5.30;99.90
24632;DHT22;59977;48.782;9.190;2024-03-07T05:56:42;4.90;99.90
24632;DHT22;59977;48.782;9.190;2024-03-07T05:59:10;5.30;99.90
24632;DHT22;59977;48.782;9.190;2024-03-07T06:01:36;4.70;99.90
24632;DHT22;59977;48.782;9.190;2024-03-07T06:04:06;5.20;99.90
24632;DHT22;59977;48.782;9.190;2024-03-07T06:06:35;4.60;99.90
24632;DHT22;59977;48.782;9.190;2024-03-07T06:09:08;4.70;99.90
24632;DHT22;59977;48.782;9.190;2024-03-07T06:11:38;5.40;99.90
24632;DHT22;59977;48.782;9.190;2024-03-07T06:14:05;4.90;99.90
24632;DHT22;59977;48.782;9.190;2024-03-07T06:16:36;5.50;99.90
24632;DHT22;59977;48.782;9.190;2024-03-07T06:19:03;4.10;99.90
24632;DHT22;59977;48.782;9.190;2024-03-07T06:21:29;5.60;99.90
24632;DHT22;59977;48.782;9.190;2024-03-07T06:23:59;5.90;99.90
24632;DHT22;59977;48.782;9.190;2024-03-07T06:26:38;5.60;99.90
24632;DHT22;59977;48.782;9.190;2024-03-07T06:29:14;4.80;99.90
24632;DHT22;59977;48.782;9.190;2024-03-07T06:31:45;5.60;99.90
24632;DHT22;59977;48.782;9.190;2024-03-07T06:34:12;5.60;99.90
24632;DHT22;59977;48.782;9.190;2024-03-07T06:36:41;4.60;99.90
24632;DHT22;59977;48.782;9.190;2024-03-07T06:39:07;4.80;99.90
24632;DHT22;59977;48.782;9.190;2024-03-07T06:41:33;5.20;99.90
24632;DHT22;59977;48.782;9.190;2024-03-07T06:43:59;4.80;99.90
24632;DHT22;59977;48.782;9.190;2024-03-07T06:46:25;6.00;99.90
24632;DHT22;59977;48.782;9.190;2024-03-07T06:48:51;5.90;99.90
24632;DHT22;59977;48.782;9.190;2024-03-07T06:51:17;5.60;99.90
24632;DHT22;59977;48.782;9.190;2024-03-07T06:53:45;6.00;99.90
24632;DHT22;59977;48.782;9.190;2024-03-07T06:56:14;4.70;99.90
24632;DHT22;59977;48.782;9.190;2024-03-07T06:58:41;5.50;99.90
24632;DHT22;59977;48.782;9.190;2024-03-07T07:01:08;4.90;99.90
24632;DHT22;59977;48.782;9.190;2024-03-07T07:03:36;4.90;99.90
24632;DHT22;59977;48.782;9.190;2024-03-07T07:06:02;5.00;99.90
24632;DHT22;59977;48.782;9.190;2024-03-07T07:08:28;4.90;99.90
24632;DHT22;59977;48.782;9.190;2024-03-07T07:10:55;4.90;99.90
24632;DHT22;59977;48.782;9.190;2024-03-07T07:13:21;5.00;99.90
24632;DHT22;59977;48.782;9.190;2024-03-07T07:15:48;5.10;99.90
24632;DHT22;59977;48.782;9.190;2024-03-07T07:18:14;5.10;99.90
24632;DHT22;59977;48.782;9.190;2024-03-07T07:20:40;5.30;99.90
24632;DHT22;59977;48.782;9.190;2024-03-07T07:23:06;5.10;99.90
24632;DHT22;59977;48.782;9.190;2024-03-07T07:25:32;5.20;99.90
24632;DHT22;59977;48.782;9.190;2024-03-07T07:27:58;5.20;99.90
24632;DHT22;59977;48.782;9.190;2024-03-07T07:30:24;5.30;99.90
24632;DHT22;59977;48.782;9.190;2024-03-07T07:32:52;5.20;99.90
24632;DHT22;59977;48.782;9.190;2024-03-07T07:35:19;5.20;99.90
24632;DHT22;59977;48.782;9.190;2024-03-07T07:37:50;5.20;99.90
24632;DHT22;59977;48.782;9.190;2024-03-07T07:40:18;5.30;99.90
24632;DHT22;59977;48.782;9.190;2024-03-07T07:42:45;6.20;99.90
24632;DHT22;59977;48.782;9.190;2024-03-07T07:45:12;5.20;99.90
24632;DHT22;59977;48.782;9.190;2024-03-07T07:47:58;5.30;99.90
24632;DHT22;59977;48.782;9.190;2024-03-07T07:50:24;5.40;99.90
24632;DHT22;59977;48.782;9.190;2024-03-07T07:52:50;5.30;99.90
24632;DHT22;59977;48.782;9.190;2024-03-07T07:55:17;5.30;99.90
24632;DHT22;59977;48.782;9.190;2024-03-07T07:57:43;5.40;99.90
24632;DHT22;59977;48.782;9.190;2024-03-07T08:00:20;5.50;99.90
24632;DHT22;59977;48.782;9.190;2024-03-07T08:02:53;5.50;99.90
24632;DHT22;59977;48.782;9.190;2024-03-07T08:05:24;5.60;99.90
24632;DHT22;59977;48.782;9.190;2024-03-07T08:08:00;5.60;99.90
24632;DHT22;59977;48.782;9.190;2024-03-07T08:10:28;5.60;99.90
24632;DHT22;59977;48.782;9.190;2024-03-07T08:12:57;5.60;99.90
24632;DHT22;59977;48.782;9.190;2024-03-07T08:15:25;5.70;99.90
24632;DHT22;59977;48.782;9.190;2024-03-07T08:17:51;5.70;99.90
24632;DHT22;59977;48.782;9.190;2024-03-07T08:20:19;5.80;99.90
24632;DHT22;59977;48.782;9.190;2024-03-07T08:22:46;5.80;99.90
24632;DHT22;59977;48.782;9.190;2024-03-07T08:25:15;5.70;99.90
24632;DHT22;59977;48.782;9.190;2024-03-07T08:27:42;5.70;99.90
24632;DHT22;59977;48.782;9.190;2024-03-07T08:30:09;5.80;99.90
24632;DHT22;59977;48.782;9.190;2024-03-07T08:32:41;5.90;99.90
24632;DHT22;59977;48.782;9.190;2024-03-07T08:35:08;6.10;99.90
24632;DHT22;59977;48.782;9.190;2024-03-07T08:37:48;6.80;99.90
24632;DHT22;59977;48.782;9.190;2024-03-07T08:40:22;6.40;99.90
24632;DHT22;59977;48.782;9.190;2024-03-07T08:42:49;6.70;99.90
24632;DHT22;59977;48.782;9.190;2024-03-07T08:45:18;6.30;99.90
24632;DHT22;59977;48.782;9.190;2024-03-07T08:47:48;6.30;99.90
24632;DHT22;59977;48.782;9.190;2024-03-07T08:50:15;6.30;99.90
24632;DHT22;59977;48.782;9.190;2024-03-07T08:52:44;6.20;99.90
24632;DHT22;59977;48.782;9.190;2024-03-07T08:55:12;6.30;99.90
24632;DHT22;59977;48.782;9.190;2024-03-07T08:57:40;6.20;99.90
24632;DHT22;59977;48.782;9.190;2024-03-07T09:00:06;6.40;99.90
24632;DHT22;59977;48.782;9.190;2024-03-07T09:02:40;6.30;99.90
24632;DHT22;59977;48.782;9.190;2024-03-07T09:05:07;6.50;99.90
24632;DHT22;59977;48.782;9.190;2024-03-07T09:07:35;6.60;99.90
24632;DHT22;59977;48.782;9.190;2024-03-07T09:10:01;6.70;99.90
24632;DHT22;59977;48.782;9.190;2024-03-07T09:12:27;7.00;99.90
24632;DHT22;59977;48.782;9.190;2024-03-07T09:14:53;6.90;99.90
24632;DHT22;59977;48.782;9.190;2024-03-07T09:17:19;7.00;99.90
24632;DHT22;59977;48.782;9.190;2024-03-07T09:19:45;7.10;99.90
24632;DHT22;59977;48.782;9.190;2024-03-07T09:22:10;7.10;99.90
24632;DHT22;59977;48.782;9.190;2024-03-07T09:24:36;7.00;99.90
24632;DHT22;59977;48.782;9.190;2024-03-07T09:27:03;7.10;99.90
24632;DHT22;59977;48.782;9.190;2024-03-07T09:29:29;7.30;99.90
24632;DHT22;59977;48.782;9.190;2024-03-07T09:31:54;7.50;99.90
24632;DHT22;59977;48.782;9.190;2024-03-07T09:34:21;7.80;99.90
24632;DHT22;59977;48.782;9.190;2024-03-07T09:36:47;7.70;99.90
24632;DHT22;59977;48.782;9.190;2024-03-07T09:39:14;7.90;99.90
24632;DHT22;59977;48.782;9.190;2024-03-07T09:41:40;8.00;99.90
24632;DHT22;59977;48.782;9.190;2024-03-07T09:44:09;8.10;99.90
24632;DHT22;59977;48.782;9.190;2024-03-07T09:46:38;8.10;99.90
24632;DHT22;59977;48.782;9.190;2024-03-07T09:49:04;8.10;99.90
24632;DHT22;59977;48.782;9.190;2024-03-07T09:51:31;8.10;99.90
24632;DHT22;59977;48.782;9.190;2024-03-07T09:54:04;8.20;99.90
24632;DHT22;59977;48.782;9.190;2024-03-07T09:56:31;8.10;99.90
24632;DHT22;59977;48.782;9.190;2024-03-07T09:59:05;8.40;99.90
24632;DHT22;59977;48.782;9.190;2024-03-07T10:01:35;8.30;99.90
24632;DHT22;59977;48.782;9.190;2024-03-07T10:04:03;8.20;99.90
24632;DHT22;59977;48.782;9.190;2024-03-07T10:06:38;8.10;99.90
24632;DHT22;59977;48.782;9.190;2024-03-07T10:09:06;8.00;99.90
24632;DHT22;59977;48.782;9.190;2024-03-07T10:11:33;8.20;99.90
24632;DHT22;59977;48.782;9.190;2024-03-07T10:13:59;8.20;99.90
24632;DHT22;59977;48.782;9.190;2024-03-07T10:16:25;8.10;99.90
24632;DHT22;59977;48.782;9.190;2024-03-07T10:18:50;8.10;99.90
24632;DHT22;59977;48.782;9.190;2024-03-07T10:21:20;8.20;99.90
24632;DHT22;59977;48.782;9.190;2024-03-07T10:23:46;8.10;99.90
24632;DHT22;59977;48.782;9.190;2024-03-07T10:26:12;8.10;99.90
24632;DHT22;59977;48.782;9.190;2024-03-07T10:28:38;8.20;99.90
24632;DHT22;59977;48.782;9.190;2024-03-07T10:31:04;8.10;99.90
24632;DHT22;59977;48.782;9.190;2024-03-07T10:33:37;8.10;99.90
24632;DHT22;59977;48.782;9.190;2024-03-07T10:36:02;8.20;99.90
24632;DHT22;59977;48.782;9.190;2024-03-07T10:38:28;8.10;99.90
24632;DHT22;59977;48.782;9.190;2024-03-07T10:40:55;8.30;99.90
24632;DHT22;59977;48.782;9.190;2024-03-07T10:43:22;8.50;99.90
24632;DHT22;59977;48.782;9.190;2024-03-07T10:45:50;8.50;99.90
24632;DHT22;59977;48.782;9.190;2024-03-07T10:48:25;8.40;99.90
24632;DHT22;59977;48.782;9.190;2024-03-07T10:51:14;8.40;99.90
24632;DHT22;59977;48.782;9.190;2024-03-07T10:54:05;8.60;99.90
24632;DHT22;59977;48.782;9.190;2024-03-07T10:56:56;8.80;99.90
24632;DHT22;59977;48.782;9.190;2024-03-07T10:59:26;8.90;99.90
24632;DHT22;59977;48.782;9.190;2024-03-07T11:04:30;9.20;99.90
24632;DHT22;59977;48.782;9.190;2024-03-07T11:06:56;9.50;99.90
24632;DHT22;59977;48.782;9.190;2024-03-07T11:09:25;9.50;99.90
24632;DHT22;59977;48.782;9.190;2024-03-07T11:11:55;10.00;99.90
24632;DHT22;59977;48.782;9.190;2024-03-07T11:14:21;9.50;99.90
24632;DHT22;59977;48.782;9.190;2024-03-07T11:16:48;9.50;99.90
24632;DHT22;59977;48.782;9.190;2024-03-07T11:19:28;9.60;99.90
24632;DHT22;59977;48.782;9.190;2024-03-07T11:21:56;9.50;99.90
24632;DHT22;59977;48.782;9.190;2024-03-07T11:24:23;9.40;99.90
24632;DHT22;59977;48.782;9.190;2024-03-07T11:26:52;9.20;99.90
24632;DHT22;59977;48.782;9.190;2024-03-07T11:30:02;9.20;99.90
24632;DHT22;59977;48.782;9.190;2024-03-07T11:32:34;9.40;99.90
24632;DHT22;59977;48.782;9.190;2024-03-07T11:35:12;9.60;99.90
24632;DHT22;59977;48.782;9.190;2024-03-07T11:37:43;9.80;99.90
24632;DHT22;59977;48.782;9.190;2024-03-07T11:42:47;10.00;99.90
24632;DHT22;59977;48.782;9.190;2024-03-07T11:45:14;9.90;99.90
24632;DHT22;59977;48.782;9.190;2024-03-07T11:47:55;10.00;99.90
24632;DHT22;59977;48.782;9.190;2024-03-07T11:50:32;10.00;99.90
24632;DHT22;59977;48.782;9.190;2024-03-07T11:53:01;10.00;99.90
24632;DHT22;59977;48.782;9.190;2024-03-07T11:55:27;10.00;99.90
24632;DHT22;59977;48.782;9.190;2024-03-07T11:58:06;10.10;99.90
24632;DHT22;59977;48.782;9.190;2024-03-07T12:00:34;10.10;99.90
24632;DHT22;59977;48.782;9.190;2024-03-07T12:03:00;10.10;99.90
24632;DHT22;59977;48.782;9.190;2024-03-07T12:05:26;10.00;99.90
24632;DHT22;59977;48.782;9.190;2024-03-07T12:07:52;10.40;99.90
24632;DHT22;59977;48.782;9.190;2024-03-07T12:10:19;9.90;99.90
24632;DHT22;59977;48.782;9.190;2024-03-07T12:12:50;10.10;99.90
24632;DHT22;59977;48.782;9.190;2024-03-07T12:15:16;10.00;99.90
24632;DHT22;59977;48.782;9.190;2024-03-07T12:17:45;10.10;99.90
24632;DHT22;59977;48.782;9.190;2024-03-07T12:20:15;10.00;99.90
24632;DHT22;59977;48.782;9.190;2024-03-07T12:23:00;9.90;99.90
24632;DHT22;59977;48.782;9.190;2024-03-07T12:25:29;9.70;99.90
24632;DHT22;59977;48.782;9.190;2024-03-07T12:30:33;9.50;99.90
24632;DHT22;59977;48.782;9.190;2024-03-07T12:33:00;9.60;99.90
24632;DHT22;59977;48.782;9.190;2024-03-07T12:35:26;9.60;99.90
24632;DHT22;59977;48.782;9.190;2024-03-07T12:37:52;9.60;99.90
24632;DHT22;59977;48.782;9.190;2024-03-07T12:40:21;9.50;99.90
24632;DHT22;59977;48.782;9.190;2024-03-07T12:42:51;9.60;99.90
24632;DHT22;59977;48.782;9.190;2024-03-07T12:45:19;9.60;99.90
24632;DHT22;59977;48.782;9.190;2024-03-07T12:47:47;9.70;99.90
24632;DHT22;59977;48.782;9.190;2024-03-07T12:50:17;9.70;99.90
24632;DHT22;59977;48.782;9.190;2024-03-07T12:52:42;9.80;99.90
24632;DHT22;59977;48.782;9.190;2024-03-07T12:55:08;9.80;99.90
24632;DHT22;59977;48.782;9.190;2024-03-07T12:57:33;9.90;99.90
24632;DHT22;59977;48.782;9.190;2024-03-07T12:59:59;9.80;99.90
24632;DHT22;59977;48.782;9.190;2024-03-07T13:02:25;9.90;99.90
24632;DHT22;59977;48.782;9.190;2024-03-07T13:04:55;9.90;99.90
24632;DHT22;59977;48.782;9.190;2024-03-07T13:07:21;10.00;99.90
24632;DHT22;59977;48.782;9.190;2024-03-07T13:09:46;10.00;99.90
24632;DHT22;59977;48.782;9.190;2024-03-07T13:12:14;9.90;99.90
24632;DHT22;59977;48.782;9.190;2024-03-07T13:14:40;10.00;99.90
24632;DHT22;59977;48.782;9.190;2024-03-07T13:17:07;9.80;99.90
24632;DHT22;59977;48.782;9.190;2024-03-07T13:19:33;9.80;99.90
24632;DHT22;59977;48.782;9.190;2024-03-07T13:21:59;9.90;99.90
24632;DHT22;59977;48.782;9.190;2024-03-07T13:24:26;9.90;99.90
24632;DHT22;59977;48.782;9.190;2024-03-07T13:26:53;10.30;99.90
24632;DHT22;59977;48.782;9.190;2024-03-07T13:29:19;9.90;99.90
24632;DHT22;59977;48.782;9.190;2024-03-07T13:31:51;9.90;99.90
24632;DHT22;59977;48.782;9.190;2024-03-07T13:34:17;9.90;99.90
24632;DHT22;59977;48.782;9.190;2024-03-07T13:36:43;9.80;99.90
24632;DHT22;59977;48.782;9.190;2024-03-07T13:39:11;9.60;99.90
24632;DHT22;59977;48.782;9.190;2024-03-07T13:41:38;9.60;99.90
24632;DHT22;59977;48.782;9.190;2024-03-07T13:44:07;9.60;99.90
24632;DHT22;59977;48.782;9.190;2024-03-07T13:46:34;9.50;99.90
24632;DHT22;59977;48.782;9.190;2024-03-07T13:49:00;9.50;99.90
24632;DHT22;59977;48.782;9.190;2024-03-07T13:51:39;9.50;99.90
24632;DHT22;59977;48.782;9.190;2024-03-07T13:54:16;9.60;99.90
24632;DHT22;59977;48.782;9.190;2024-03-07T13:57:22;9.50;99.90
24632;DHT22;59977;48.782;9.190;2024-03-07T14:02:54;9.40;99.90
24632;DHT22;59977;48.782;9.190;2024-03-07T14:11:36;9.60;99.90
24632;DHT22;59977;48.782;9.190;2024-03-07T14:25:37;9.70;99.90
24632;DHT22;59977;48.782;9.190;2024-03-07T14:30:50;9.90;99.90
24632;DHT22;59977;48.782;9.190;2024-03-07T14:33:21;9.90;99.90
24632;DHT22;59977;48.782;9.190;2024-03-07T14:36:09;9.90;99.90
24632;DHT22;59977;48.782;9.190;2024-03-07T14:38:50;10.00;99.90
24632;DHT22;59977;48.782;9.190;2024-03-07T14:41:18;9.90;99.90
24632;DHT22;59977;48.782;9.190;2024-03-07T14:43:44;9.90;99.90
24632;DHT22;59977;48.782;9.190;2024-03-07T14:46:11;9.90;99.90
24632;DHT22;59977;48.782;9.190;2024-03-07T14:48:42;9.90;99.90
24632;DHT22;59977;48.782;9.190;2024-03-07T14:51:09;9.90;99.90
24632;DHT22;59977;48.782;9.190;2024-03-07T14:53:41;9.90;99.90
24632;DHT22;59977;48.782;9.190;2024-03-07T14:56:08;9.80;99.90
24632;DHT22;59977;48.782;9.190;2024-03-07T14:58:35;9.70;99.90
24632;DHT22;59977;48.782;9.190;2024-03-07T15:01:18;9.80;99.90
24632;DHT22;59977;48.782;9.190;2024-03-07T15:03:45;9.90;99.90
24632;DHT22;59977;48.782;9.190;2024-03-07T15:06:11;9.90;99.90
24632;DHT22;59977;48.782;9.190;2024-03-07T15:08:41;10.00;99.90
24632;DHT22;59977;48.782;9.190;2024-03-07T15:11:18;10.00;99.90
24632;DHT22;59977;48.782;9.190;2024-03-07T15:13:47;9.90;99.90
24632;DHT22;59977;48.782;9.190;2024-03-07T15:16:14;9.90;99.90
24632;DHT22;59977;48.782;9.190;2024-03-07T15:18:43;10.00;99.90
24632;DHT22;59977;48.782;9.190;2024-03-07T15:21:09;10.00;99.90
24632;DHT22;59977;48.782;9.190;2024-03-07T15:23:43;10.00;99.90
24632;DHT22;59977;48.782;9.190;2024-03-07T15:26:10;9.90;99.90
24632;DHT22;59977;48.782;9.190;2024-03-07T15:28:37;9.90;99.90
24632;DHT22;59977;48.782;9.190;2024-03-07T15:31:03;9.80;99.90
24632;DHT22;59977;48.782;9.190;2024-03-07T15:33:34;10.00;99.90
24632;DHT22;59977;48.782;9.190;2024-03-07T15:36:00;9.80;99.90
24632;DHT22;59977;48.782;9.190;2024-03-07T15:38:27;9.90;99.90
24632;DHT22;59977;48.782;9.190;2024-03-07T15:41:00;9.90;99.90
24632;DHT22;59977;48.782;9.190;2024-03-07T15:43:27;10.00;99.90
24632;DHT22;59977;48.782;9.190;2024-03-07T15:45:53;10.00;99.90
24632;DHT22;59977;48.782;9.190;2024-03-07T15:48:19;10.00;99.90
24632;DHT22;59977;48.782;9.190;2024-03-07T15:50:50;11.00;99.90
24632;DHT22;59977;48.782;9.190;2024-03-07T15:53:17;10.30;99.90
24632;DHT22;59977;48.782;9.190;2024-03-07T15:55:45;10.40;99.90
24632;DHT22;59977;48.782;9.190;2024-03-07T15:58:11;10.60;99.90
24632;DHT22;59977;48.782;9.190;2024-03-07T16:00:37;10.50;99.90
24632;DHT22;59977;48.782;9.190;2024-03-07T16:03:05;10.50;99.90
24632;DHT22;59977;48.782;9.190;2024-03-07T16:05:39;10.30;99.90
24632;DHT22;59977;48.782;9.190;2024-03-07T16:08:07;10.10;99.90
24632;DHT22;59977;48.782;9.190;2024-03-07T16:10:38;9.90;99.90
24632;DHT22;59977;48.782;9.190;2024-03-07T16:13:06;9.80;99.90
24632;DHT22;59977;48.782;9.190;2024-03-07T16:15:38;9.70;99.90
24632;DHT22;59977;48.782;9.190;2024-03-07T16:18:04;9.50;99.90
24632;DHT22;59977;48.782;9.190;2024-03-07T16:20:32;9.50;99.90
24632;DHT22;59977;48.782;9.190;2024-03-07T16:22:58;9.50;99.90
24632;DHT22;59977;48.782;9.190;2024-03-07T16:25:26;9.40;99.90
24632;DHT22;59977;48.782;9.190;2024-03-07T16:27:53;9.40;99.90